메인 페이지
METAR-TAF:

METAR-TAF

공항 :

안탈리아 공항

안탈리아, 터키

위도: 36-42N, 경도: 030-44E, 고도: 50m

현재 날씨관측

예보는 42분 전, 13:50시(UTC)에 발표되었습니다.
동남동16kt
온도 15°C
습도 82%
기압 1008 hPa
시정 10km 이상
고도 2000ft 상공 구름 조금, 적란운.
고도 3000ft 상공 구름 많음

METAR: LTAI 141350Z 12016KT 9999 FEW020CB BKN030 15/12 Q1008 NOSIG RMK RWY18C 11013KT RWY36R 11016KT RWY18L 11014G25KT

시각: 17:32 (14:32 UTC)

예보

예보는 3 시간 52분 전, 10:40시(UTC)에 발표되었습니다.
예보 대상 시간: 14일 12시부터 15일 12시까지 (UTC)
남남동15kt, 순간 최대 풍속 25kt
시정 10km 이상
고도 2000ft 상공 구름 조금, 적란운.
고도 3000ft 상공 구름 많음
약한소나기
전환 중
14일 15시부터 14일 18시까지 (UTC)
북북서6kt
확률 40%
14일 15시부터 14일 19시까지 (UTC)
뇌우, 약한비

TAF: LTAI 141040Z 1412/1512 15015G25KT 9999 -SHRA FEW020CB BKN030 BECMG 1415/1418 34006KT PROB40 1415/1419 -TSRA

4,000개 이상의 공항 관측 자료 및 예보 (METAR 및 TAF 보고).

지도상에서 검색 가능한 기상관측소가 노란 점과 빨간 점으로 표시되어 있습니다.

기상관측소 명을 보려면 표시 위로 마우스를 이동하세요.

날씨 관측과 예보를 보려면 클릭하세요.

지도 변경 : 확대하려면 엑스 표시가 있는 녹색 버튼, 축소하려면 빼기 표시가 있는 녹색 버튼, 다음 페이지의 지도를 보려면 녹색 화살표를 클릭하세요.


METAR-TAF: